Time;durP1;ratioP1;P1;durP2;ratioP2;P2;SDS_P1;SDS_P2;PMS_P1;PMS_P2;Temp;Humidity;BMP_temperature;BMP_pressure;BME280_temperature;BME280_humidity;BME280_pressure;Samples;Min_cycle;Max_cycle;Signal;HPM_P1;HPM_P2
2022/07/10 00:02:24;;;;;;;9.43;4.23;;;;;;;;;;741111;187;919402;-59
2022/07/10 00:04:50;;;;;;;8.00;5.20;;;;;;;;;;740155;187;918513;-59
2022/07/10 00:07:15;;;;;;;7.07;4.70;;;;;;;;;;740451;187;917387;-58
2022/07/10 00:09:41;;;;;;;9.03;4.40;;;;;;;;;;743239;187;919609;-59
2022/07/10 00:12:07;;;;;;;25.43;5.00;;;;;;;;;;740699;187;919075;-59
2022/07/10 00:14:33;;;;;;;11.47;4.73;;;;;;;;;;744430;187;924623;-63
2022/07/10 00:16:59;;;;;;;6.67;3.80;;;;;;;;;;736825;187;918616;-59
2022/07/10 00:19:25;;;;;;;11.27;5.23;;;;;;;;;;736043;187;921251;-59
2022/07/10 00:21:51;;;;;;;6.17;4.60;;;;;;;;;;745230;187;919030;-59
2022/07/10 00:24:16;;;;;;;8.03;5.00;;;;;;;;;;737488;187;919814;-65
2022/07/10 00:26:42;;;;;;;8.33;5.20;;;;;;;;;;739840;187;917338;-59
2022/07/10 00:29:08;;;;;;;12.90;5.70;;;;;;;;;;744740;187;817649;-59
2022/07/10 00:31:34;;;;;;;8.63;6.33;;;;;;;;;;738309;187;813804;-65
2022/07/10 00:34:00;;;;;;;10.13;5.80;;;;;;;;;;736019;187;919668;-64
2022/07/10 00:36:26;;;;;;;8.63;5.90;;;;;;;;;;736359;187;922012;-64
2022/07/10 00:38:52;;;;;;;14.17;5.80;;;;;;;;;;741112;187;914876;-59
2022/07/10 00:41:17;;;;;;;11.27;6.73;;;;;;;;;;736278;189;919625;-58
2022/07/10 00:43:49;;;;;;;10.30;6.67;;;;;;;;;;739224;187;846602;-64
2022/07/10 00:46:20;;;;;;;10.10;5.93;;;;;;;;;;741354;187;940445;-65
2022/07/10 00:48:41;;;;;;;9.70;8.10;;;;;;;;;;733870;187;942577;-65
2022/07/10 00:51:07;;;;;;;8.03;6.73;;;;;;;;;;736904;187;917300;-65
2022/07/10 00:53:32;;;;;;;20.10;7.23;;;;;;;;;;740298;187;892576;-63
2022/07/10 00:55:58;;;;;;;15.07;7.67;;;;;;;;;;744480;187;918901;-63
2022/07/10 00:58:24;;;;;;;12.03;8.77;;;;;;;;;;736030;187;921780;-63
2022/07/10 01:00:50;;;;;;;16.40;6.90;;;;;;;;;;737682;187;919358;-63
2022/07/10 01:03:16;;;;;;;9.93;7.83;;;;;;;;;;741903;185;925059;-59
2022/07/10 01:05:42;;;;;;;10.13;7.33;;;;;;;;;;737989;186;919650;-65
2022/07/10 01:08:08;;;;;;;9.97;8.13;;;;;;;;;;738058;187;918654;-59
2022/07/10 01:10:33;;;;;;;9.23;7.53;;;;;;;;;;742009;187;1020739;-59
2022/07/10 01:12:59;;;;;;;11.90;8.20;;;;;;;;;;739280;187;914476;-64
2022/07/10 01:15:25;;;;;;;12.73;8.70;;;;;;;;;;737707;188;922160;-65
2022/07/10 01:17:53;;;;;;;18.53;9.33;;;;;;;;;;736594;187;919435;-63
2022/07/10 01:20:17;;;;;;;14.50;8.03;;;;;;;;;;742435;187;823417;-60
2022/07/10 01:22:43;;;;;;;13.57;8.60;;;;;;;;;;737569;189;919384;-60
2022/07/10 01:25:10;;;;;;;13.97;9.07;;;;;;;;;;739427;187;919216;-60
2022/07/10 01:27:34;;;;;;;11.93;9.73;;;;;;;;;;734892;187;921087;-64
2022/07/10 01:30:00;;;;;;;9.90;8.00;;;;;;;;;;728930;187;914751;-63
2022/07/10 01:32:26;;;;;;;11.00;9.33;;;;;;;;;;739522;187;855760;-61
2022/07/10 01:34:52;;;;;;;9.93;8.93;;;;;;;;;;732640;189;877487;-59
2022/07/10 01:37:18;;;;;;;10.83;9.20;;;;;;;;;;739795;187;932039;-65
2022/07/10 01:39:44;;;;;;;12.05;8.32;;;;;;;;;;737821;188;920777;-65
2022/07/10 01:42:09;;;;;;;10.87;9.47;;;;;;;;;;745200;185;918842;-64
2022/07/10 01:44:35;;;;;;;13.63;9.90;;;;;;;;;;731583;187;912575;-65
2022/07/10 01:47:01;;;;;;;12.65;9.18;;;;;;;;;;731588;187;917739;-59
2022/07/10 01:49:27;;;;;;;10.90;9.80;;;;;;;;;;738358;187;919358;-64
2022/07/10 01:51:53;;;;;;;12.57;10.07;;;;;;;;;;739950;187;922153;-60
2022/07/10 01:54:19;;;;;;;15.57;9.50;;;;;;;;;;737770;189;938462;-59
2022/07/10 01:56:44;;;;;;;14.37;10.47;;;;;;;;;;736911;187;918044;-59
2022/07/10 01:59:10;;;;;;;12.07;9.40;;;;;;;;;;741588;188;918563;-63
2022/07/10 02:01:36;;;;;;;14.60;10.37;;;;;;;;;;732574;189;918476;-66
2022/07/10 02:06:33;;;;;;;12.50;9.97;;;;;;;;;;737106;188;919093;-60
2022/07/10 02:08:59;;;;;;;16.10;9.93;;;;;;;;;;740623;188;917492;-59
2022/07/10 02:11:25;;;;;;;14.90;10.73;;;;;;;;;;741494;187;818546;-61
2022/07/10 02:13:51;;;;;;;11.77;10.37;;;;;;;;;;740085;189;819338;-61
2022/07/10 02:16:17;;;;;;;11.47;10.27;;;;;;;;;;741818;186;902449;-61
2022/07/10 02:18:43;;;;;;;13.00;10.20;;;;;;;;;;737737;187;922568;-67
2022/07/10 02:21:09;;;;;;;12.20;10.80;;;;;;;;;;736596;188;881587;-68
2022/07/10 02:23:35;;;;;;;12.48;10.25;;;;;;;;;;745106;187;795444;-67
2022/07/10 02:26:00;;;;;;;13.20;10.60;;;;;;;;;;741957;185;918010;-67
2022/07/10 02:28:26;;;;;;;11.43;10.03;;;;;;;;;;742673;187;1023947;-61
2022/07/10 02:30:52;;;;;;;12.90;10.30;;;;;;;;;;732249;186;918867;-60
2022/07/10 02:33:18;;;;;;;13.90;10.73;;;;;;;;;;744167;188;919262;-60
2022/07/10 02:35:44;;;;;;;12.63;10.73;;;;;;;;;;736797;187;919609;-68
2022/07/10 02:38:10;;;;;;;15.30;11.30;;;;;;;;;;737174;189;919334;-61
2022/07/10 02:40:35;;;;;;;25.43;11.23;;;;;;;;;;739677;188;922160;-68
2022/07/10 02:43:01;;;;;;;13.37;10.70;;;;;;;;;;736433;187;918980;-66
2022/07/10 02:45:27;;;;;;;12.60;11.23;;;;;;;;;;731668;188;817554;-60
2022/07/10 02:47:53;;;;;;;12.40;10.17;;;;;;;;;;742212;188;812056;-61
2022/07/10 02:50:19;;;;;;;13.73;11.00;;;;;;;;;;735694;188;817980;-66
2022/07/10 02:52:45;;;;;;;13.45;11.12;;;;;;;;;;736230;188;917694;-66
2022/07/10 02:55:11;;;;;;;12.50;10.90;;;;;;;;;;746410;187;918078;-60
2022/07/10 02:57:37;;;;;;;12.37;10.77;;;;;;;;;;737728;190;884925;-66
2022/07/10 03:00:04;;;;;;;14.80;11.57;;;;;;;;;;738219;187;915775;-67
2022/07/10 03:02:30;;;;;;;15.07;12.53;;;;;;;;;;739205;189;816021;-67
2022/07/10 03:04:56;;;;;;;14.43;11.90;;;;;;;;;;744591;187;818422;-68
2022/07/10 03:07:22;;;;;;;12.73;10.73;;;;;;;;;;744883;187;918673;-60
2022/07/10 03:09:48;;;;;;;14.30;12.00;;;;;;;;;;738320;191;875881;-64
2022/07/10 03:12:13;;;;;;;16.70;12.23;;;;;;;;;;742724;187;916616;-66
2022/07/10 03:14:39;;;;;;;12.23;10.50;;;;;;;;;;740419;187;801726;-67
2022/07/10 03:17:05;;;;;;;13.67;11.53;;;;;;;;;;744039;186;919266;-60
2022/07/10 03:19:33;;;;;;;16.40;10.87;;;;;;;;;;734606;187;920294;-60
2022/07/10 03:21:57;;;;;;;13.93;11.87;;;;;;;;;;734268;189;918058;-61
2022/07/10 03:24:23;;;;;;;17.17;11.90;;;;;;;;;;736137;187;921461;-68
2022/07/10 03:26:49;;;;;;;14.57;12.13;;;;;;;;;;737619;185;919246;-67
2022/07/10 03:29:14;;;;;;;12.27;11.00;;;;;;;;;;746331;187;918358;-68
2022/07/10 03:31:40;;;;;;;13.17;10.93;;;;;;;;;;729726;190;920754;-59
2022/07/10 03:34:06;;;;;;;14.53;12.30;;;;;;;;;;741153;187;914479;-67
2022/07/10 03:36:32;;;;;;;14.37;11.60;;;;;;;;;;743971;187;923700;-60
2022/07/10 03:38:58;;;;;;;18.17;13.27;;;;;;;;;;732010;187;918923;-68
2022/07/10 03:41:24;;;;;;;15.83;12.30;;;;;;;;;;735322;187;918492;-61
2022/07/10 03:43:49;;;;;;;15.67;13.73;;;;;;;;;;744689;187;918853;-68
2022/07/10 03:46:15;;;;;;;16.43;13.67;;;;;;;;;;733122;187;1728002;-59
2022/07/10 03:48:41;;;;;;;15.57;12.83;;;;;;;;;;740651;187;917462;-68
2022/07/10 03:51:07;;;;;;;14.17;11.27;;;;;;;;;;732056;191;815520;-60
2022/07/10 03:53:33;;;;;;;15.60;11.77;;;;;;;;;;740854;188;916644;-60
2022/07/10 03:56:00;;;;;;;17.60;12.43;;;;;;;;;;737646;187;914982;-67
2022/07/10 03:58:25;;;;;;;23.00;14.03;;;;;;;;;;738719;188;816833;-59
2022/07/10 04:00:50;;;;;;;17.57;11.33;;;;;;;;;;744753;187;915355;-67
2022/07/10 04:03:16;;;;;;;16.73;12.60;;;;;;;;;;736305;188;996934;-59
2022/07/10 04:05:42;;;;;;;15.40;12.93;;;;;;;;;;737475;187;922780;-67
2022/07/10 04:08:08;;;;;;;15.13;11.40;;;;;;;;;;741715;189;919153;-60
2022/07/10 04:10:34;;;;;;;18.07;11.90;;;;;;;;;;735691;187;911661;-59
2022/07/10 04:13:00;;;;;;;16.10;13.10;;;;;;;;;;736929;187;919335;-66
2022/07/10 04:15:25;;;;;;;14.00;12.53;;;;;;;;;;737978;189;915231;-66
2022/07/10 04:17:51;;;;;;;17.42;11.95;;;;;;;;;;745960;187;815394;-59
2022/07/10 04:20:17;;;;;;;13.57;12.17;;;;;;;;;;738452;187;917135;-58
2022/07/10 04:22:43;;;;;;;14.60;12.17;;;;;;;;;;736489;187;924604;-65
2022/07/10 04:25:09;;;;;;;12.73;11.40;;;;;;;;;;739320;187;917873;-65
2022/07/10 04:27:35;;;;;;;15.80;11.97;;;;;;;;;;738388;185;917611;-63
2022/07/10 04:30:01;;;;;;;15.50;11.73;;;;;;;;;;729275;187;921598;-64
2022/07/10 04:32:27;;;;;;;15.30;11.53;;;;;;;;;;743740;187;822810;-58
2022/07/10 04:34:52;;;;;;;21.10;12.37;;;;;;;;;;736780;187;918977;-59
2022/07/10 04:37:18;;;;;;;17.60;13.93;;;;;;;;;;736656;187;919222;-64
2022/07/10 04:39:44;;;;;;;19.60;12.83;;;;;;;;;;744408;187;1017926;-58
2022/07/10 04:42:10;;;;;;;18.30;14.60;;;;;;;;;;739916;187;817897;-65
2022/07/10 04:44:36;;;;;;;16.70;13.70;;;;;;;;;;741663;187;924731;-59
2022/07/10 04:47:03;;;;;;;17.50;13.67;;;;;;;;;;738632;187;842740;-64
2022/07/10 04:49:28;;;;;;;19.80;13.40;;;;;;;;;;744767;187;919267;-65
2022/07/10 04:51:54;;;;;;;18.87;13.83;;;;;;;;;;733923;187;917317;-65
2022/07/10 04:54:20;;;;;;;19.60;14.73;;;;;;;;;;737419;187;815964;-57
2022/07/10 04:56:46;;;;;;;16.83;13.13;;;;;;;;;;743609;187;779755;-65
2022/07/10 04:59:12;;;;;;;19.17;14.60;;;;;;;;;;736885;187;918692;-65
2022/07/10 05:01:38;;;;;;;15.33;12.73;;;;;;;;;;736777;187;914038;-64
2022/07/10 05:04:04;;;;;;;16.27;13.60;;;;;;;;;;744483;187;915718;-65
2022/07/10 05:06:30;;;;;;;13.07;11.17;;;;;;;;;;738830;187;913665;-59
2022/07/10 05:08:56;;;;;;;12.77;9.50;;;;;;;;;;735821;187;921705;-58
2022/07/10 05:11:22;;;;;;;15.90;12.07;;;;;;;;;;737329;187;921550;-64
2022/07/10 05:13:48;;;;;;;11.60;10.27;;;;;;;;;;741249;187;920657;-65
2022/07/10 05:16:14;;;;;;;11.87;9.90;;;;;;;;;;736974;187;821913;-64
2022/07/10 05:18:40;;;;;;;11.07;9.43;;;;;;;;;;737286;187;940192;-58
2022/07/10 05:21:05;;;;;;;14.10;11.13;;;;;;;;;;741157;187;940926;-64
2022/07/10 05:23:31;;;;;;;10.93;8.57;;;;;;;;;;738210;187;816861;-58
2022/07/10 05:25:57;;;;;;;10.93;8.90;;;;;;;;;;736637;187;818529;-66
2022/07/10 05:28:23;;;;;;;11.63;9.07;;;;;;;;;;741622;187;916007;-65
2022/07/10 05:30:49;;;;;;;11.40;8.87;;;;;;;;;;735730;184;916690;-61
2022/07/10 05:33:15;;;;;;;10.87;9.13;;;;;;;;;;729675;191;1016248;-66
2022/07/10 05:35:40;;;;;;;11.40;9.50;;;;;;;;;;736487;187;942556;-65
2022/07/10 05:38:06;;;;;;;13.80;11.07;;;;;;;;;;739835;187;917773;-61
2022/07/10 05:40:32;;;;;;;10.70;9.50;;;;;;;;;;735923;187;914461;-61
2022/07/10 05:42:58;;;;;;;15.83;10.63;;;;;;;;;;736268;187;919810;-60
2022/07/10 05:45:24;;;;;;;10.37;9.33;;;;;;;;;;734434;191;918424;-60
2022/07/10 05:47:50;;;;;;;15.10;11.50;;;;;;;;;;735497;187;919198;-65
2022/07/10 05:50:16;;;;;;;12.03;10.47;;;;;;;;;;737946;187;915538;-60
2022/07/10 05:52:42;;;;;;;11.67;9.97;;;;;;;;;;746404;187;919020;-66
2022/07/10 05:55:08;;;;;;;11.67;10.33;;;;;;;;;;738418;187;918675;-67
2022/07/10 05:57:34;;;;;;;11.85;10.18;;;;;;;;;;739679;187;919167;-66
2022/07/10 06:00:00;;;;;;;15.55;12.02;;;;;;;;;;739663;187;1030753;-64
2022/07/10 06:02:26;;;;;;;14.57;11.60;;;;;;;;;;740515;187;921023;-60
2022/07/10 06:04:51;;;;;;;12.33;11.03;;;;;;;;;;738457;187;920488;-65
2022/07/10 06:07:17;;;;;;;12.20;10.90;;;;;;;;;;739128;187;818274;-65
2022/07/10 06:09:43;;;;;;;12.70;10.05;;;;;;;;;;740717;187;819421;-66
2022/07/10 06:12:09;;;;;;;12.97;10.80;;;;;;;;;;736501;187;818376;-66
2022/07/10 06:14:35;;;;;;;14.00;10.63;;;;;;;;;;738079;187;910827;-59
2022/07/10 06:17:01;;;;;;;15.23;10.90;;;;;;;;;;743477;187;900384;-57
2022/07/10 06:19:27;;;;;;;11.93;10.50;;;;;;;;;;739714;187;917157;-56
2022/07/10 06:22:30;;;;;;;11.60;9.63;;;;;;;;;;743744;184;917791;-56
2022/07/10 06:24:18;;;;;;;16.10;11.77;;;;;;;;;;729182;188;918532;-64
2022/07/10 06:26:44;;;;;;;14.40;11.80;;;;;;;;;;734516;187;919594;-64
2022/07/10 06:29:10;;;;;;;11.68;9.98;;;;;;;;;;737568;187;849926;-59
2022/07/10 06:31:36;;;;;;;9.13;7.03;;;;;;;;;;738072;187;918124;-64
2022/07/10 06:34:02;;;;;;;9.87;8.63;;;;;;;;;;743775;187;817066;-63
2022/07/10 06:36:27;;;;;;;10.63;8.23;;;;;;;;;;742360;187;817230;-58
2022/07/10 06:38:53;;;;;;;12.53;9.30;;;;;;;;;;742022;187;745400;-58
2022/07/10 06:41:20;;;;;;;10.70;7.83;;;;;;;;;;745853;187;624029;-57
2022/07/10 06:43:45;;;;;;;12.33;9.30;;;;;;;;;;735598;187;918857;-58
2022/07/10 06:46:11;;;;;;;10.67;9.37;;;;;;;;;;736500;187;916845;-65
2022/07/10 06:48:39;;;;;;;12.10;9.77;;;;;;;;;;743129;187;919416;-64
2022/07/10 06:51:03;;;;;;;12.10;9.17;;;;;;;;;;739107;187;618070;-58
2022/07/10 06:53:29;;;;;;;12.90;9.67;;;;;;;;;;739690;187;620615;-61
2022/07/10 06:55:54;;;;;;;9.17;8.17;;;;;;;;;;740685;187;635828;-63
2022/07/10 06:58:20;;;;;;;7.77;6.87;;;;;;;;;;744146;187;624952;-60
2022/07/10 07:00:46;;;;;;;8.70;6.93;;;;;;;;;;739688;187;882040;-66
2022/07/10 07:03:12;;;;;;;8.63;6.67;;;;;;;;;;743476;187;621480;-65
2022/07/10 07:05:38;;;;;;;7.93;6.50;;;;;;;;;;745605;187;644498;-65
2022/07/10 07:08:04;;;;;;;7.17;6.40;;;;;;;;;;748553;187;631188;-59
2022/07/10 07:10:30;;;;;;;6.73;5.97;;;;;;;;;;743173;187;635306;-60
2022/07/10 07:12:55;;;;;;;5.90;5.30;;;;;;;;;;745478;187;616186;-59
2022/07/10 07:15:23;;;;;;;5.40;4.70;;;;;;;;;;745663;187;633601;-60
2022/07/10 07:17:56;;;;;;;6.40;4.73;;;;;;;;;;736189;187;624155;-63
2022/07/10 07:25:16;;;;;;;6.43;4.30;;;;;;;;;;741973;187;640022;-64
2022/07/10 07:27:42;;;;;;;6.17;4.07;;;;;;;;;;739082;187;883197;-58
2022/07/10 07:30:10;;;;;;;7.53;4.00;;;;;;;;;;741617;187;631892;-62
2022/07/10 07:32:34;;;;;;;6.70;2.97;;;;;;;;;;742487;187;625307;-63
2022/07/10 07:35:01;;;;;;;4.23;3.70;;;;;;;;;;736992;187;632558;-58
2022/07/10 07:37:33;;;;;;;5.63;3.60;;;;;;;;;;740247;187;710502;-63
2022/07/10 07:39:59;;;;;;;8.70;3.47;;;;;;;;;;744015;187;625159;-62
2022/07/10 07:42:24;;;;;;;5.03;3.10;;;;;;;;;;739175;187;630758;-56
2022/07/10 07:44:50;;;;;;;3.53;2.80;;;;;;;;;;738532;187;635565;-64
2022/07/10 07:47:16;;;;;;;6.13;3.30;;;;;;;;;;741868;187;636885;-59
2022/07/10 07:49:42;;;;;;;5.80;2.80;;;;;;;;;;745348;188;629094;-59
2022/07/10 07:52:08;;;;;;;9.30;3.27;;;;;;;;;;745060;185;631755;-58
2022/07/10 07:54:34;;;;;;;4.00;2.47;;;;;;;;;;740089;187;623581;-58
2022/07/10 07:56:59;;;;;;;5.10;3.10;;;;;;;;;;745917;187;631842;-59
2022/07/10 07:59:25;;;;;;;4.40;2.50;;;;;;;;;;742929;187;629491;-62
2022/07/10 08:01:51;;;;;;;3.87;1.87;;;;;;;;;;742191;187;636952;-57
2022/07/10 08:04:17;;;;;;;7.23;3.00;;;;;;;;;;742838;187;627128;-56
2022/07/10 08:06:43;;;;;;;10.40;1.80;;;;;;;;;;740660;187;717738;-57
2022/07/10 08:09:09;;;;;;;4.63;2.33;;;;;;;;;;735891;187;618933;-63
2022/07/10 08:11:35;;;;;;;4.53;2.00;;;;;;;;;;734366;188;919171;-63
2022/07/10 08:14:00;;;;;;;2.97;1.90;;;;;;;;;;746924;187;622375;-63
2022/07/10 08:16:26;;;;;;;4.50;2.20;;;;;;;;;;743493;187;627362;-58
2022/07/10 08:18:52;;;;;;;6.50;2.40;;;;;;;;;;742588;187;723339;-58
2022/07/10 08:21:18;;;;;;;4.93;2.40;;;;;;;;;;744208;184;817062;-63
2022/07/10 08:23:44;;;;;;;4.70;2.03;;;;;;;;;;741641;187;624927;-57
2022/07/10 08:26:10;;;;;;;7.10;2.57;;;;;;;;;;744290;187;625071;-58
2022/07/10 08:28:35;;;;;;;5.70;2.37;;;;;;;;;;744711;187;630592;-63
2022/07/10 08:31:02;;;;;;;7.47;2.97;;;;;;;;;;743487;187;634445;-56
2022/07/10 08:33:28;;;;;;;5.23;2.23;;;;;;;;;;744942;187;640996;-66
2022/07/10 08:35:58;;;;;;;10.52;3.28;;;;;;;;;;745577;187;623206;-58
2022/07/10 08:38:20;;;;;;;4.00;1.63;;;;;;;;;;743850;187;630385;-58
2022/07/10 08:40:46;;;;;;;12.30;2.37;;;;;;;;;;742002;187;626345;-58
2022/07/10 08:43:12;;;;;;;3.43;1.83;;;;;;;;;;744229;187;649688;-63
2022/07/10 08:45:38;;;;;;;3.97;2.30;;;;;;;;;;746326;187;644389;-57
2022/07/10 08:48:05;;;;;;;10.67;3.00;;;;;;;;;;742951;187;633524;-58
2022/07/10 08:50:30;;;;;;;4.87;2.20;;;;;;;;;;743587;187;634123;-58
2022/07/10 08:53:09;;;;;;;4.10;2.23;;;;;;;;;;743838;187;620360;-63
2022/07/10 08:55:35;;;;;;;4.23;1.63;;;;;;;;;;746115;187;627511;-63
2022/07/10 08:58:01;;;;;;;3.43;1.97;;;;;;;;;;741616;187;629070;-62
2022/07/10 09:00:26;;;;;;;3.90;1.83;;;;;;;;;;741571;187;631176;-60
2022/07/10 09:02:53;;;;;;;9.20;2.10;;;;;;;;;;745021;187;646646;-63
2022/07/10 09:05:19;;;;;;;4.07;1.77;;;;;;;;;;731090;191;628273;-58
2022/07/10 09:07:45;;;;;;;6.40;2.60;;;;;;;;;;741422;187;628659;-58
2022/07/10 09:10:11;;;;;;;7.57;2.57;;;;;;;;;;741440;189;643973;-58
2022/07/10 09:12:43;;;;;;;7.97;3.63;;;;;;;;;;744726;188;637006;-64
2022/07/10 09:15:14;;;;;;;6.73;2.70;;;;;;;;;;742305;188;620636;-58
2022/07/10 09:17:46;;;;;;;8.10;2.10;;;;;;;;;;739984;187;623133;-58
2022/07/10 09:20:12;;;;;;;5.40;2.00;;;;;;;;;;741121;187;643072;-58
2022/07/10 09:22:38;;;;;;;5.90;2.30;;;;;;;;;;745511;184;634039;-64
2022/07/10 09:25:04;;;;;;;3.70;2.17;;;;;;;;;;737840;188;633862;-62
2022/07/10 09:27:30;;;;;;;5.57;1.80;;;;;;;;;;738489;189;627852;-58
2022/07/10 09:29:57;;;;;;;8.93;2.33;;;;;;;;;;750174;187;645776;-63
2022/07/10 09:32:21;;;;;;;5.43;2.47;;;;;;;;;;742718;187;638239;-58
2022/07/10 09:34:48;;;;;;;5.60;2.10;;;;;;;;;;740363;187;628606;-64
2022/07/10 09:37:32;;;;;;;6.93;2.00;;;;;;;;;;745315;187;623902;-58
2022/07/10 09:39:59;;;;;;;4.53;2.83;;;;;;;;;;741378;187;1024452;-63
2022/07/10 09:42:32;;;;;;;6.10;2.13;;;;;;;;;;744456;187;819193;-58
2022/07/10 09:45:03;;;;;;;5.23;2.43;;;;;;;;;;742173;187;624010;-58
2022/07/10 09:47:29;;;;;;;5.63;2.17;;;;;;;;;;742465;187;629502;-63
2022/07/10 09:49:55;;;;;;;8.43;2.50;;;;;;;;;;739884;187;816983;-62
2022/07/10 09:52:21;;;;;;;5.30;2.20;;;;;;;;;;743188;187;817604;-56
2022/07/10 09:54:47;;;;;;;6.00;2.60;;;;;;;;;;738124;187;922490;-59
2022/07/10 09:57:12;;;;;;;5.97;2.17;;;;;;;;;;727330;188;918802;-62
2022/07/10 09:59:38;;;;;;;8.93;2.50;;;;;;;;;;744950;187;629803;-62
2022/07/10 10:02:04;;;;;;;4.03;2.07;;;;;;;;;;735400;187;920284;-58
2022/07/10 10:04:30;;;;;;;7.78;2.62;;;;;;;;;;732519;184;917727;-65
2022/07/10 10:06:56;;;;;;;2.87;2.00;;;;;;;;;;735826;188;965457;-63
2022/07/10 10:09:23;;;;;;;8.03;2.00;;;;;;;;;;737911;187;921240;-63
2022/07/10 10:11:48;;;;;;;5.20;2.10;;;;;;;;;;735081;187;919647;-63
2022/07/10 10:14:14;;;;;;;4.93;2.37;;;;;;;;;;735785;188;916221;-62
2022/07/10 10:16:40;;;;;;;6.10;2.00;;;;;;;;;;743257;187;918540;-63
2022/07/10 10:21:37;;;;;;;7.60;2.03;;;;;;;;;;740417;187;819658;-64
2022/07/10 10:24:03;;;;;;;3.40;1.87;;;;;;;;;;747013;187;710385;-57
2022/07/10 10:26:29;;;;;;;5.77;1.90;;;;;;;;;;738715;187;875730;-58
2022/07/10 10:28:56;;;;;;;5.50;2.00;;;;;;;;;;737032;187;918276;-58
2022/07/10 10:31:21;;;;;;;6.12;1.90;;;;;;;;;;737725;187;892080;-57
2022/07/10 10:33:48;;;;;;;2.90;1.63;;;;;;;;;;740749;187;921254;-58
2022/07/10 10:36:13;;;;;;;5.07;2.00;;;;;;;;;;739227;187;919125;-62
2022/07/10 10:38:44;;;;;;;2.87;1.83;;;;;;;;;;741956;186;919022;-61
2022/07/10 10:41:27;;;;;;;4.30;1.90;;;;;;;;;;744231;187;909389;-60
2022/07/10 10:43:58;;;;;;;5.30;2.80;;;;;;;;;;745842;186;734067;-62
2022/07/10 10:46:25;;;;;;;3.50;1.90;;;;;;;;;;744514;187;713078;-57
2022/07/10 10:48:57;;;;;;;4.90;2.00;;;;;;;;;;739779;187;916997;-64
2022/07/10 10:51:23;;;;;;;5.20;2.13;;;;;;;;;;741137;187;817022;-61
2022/07/10 10:53:49;;;;;;;6.20;2.07;;;;;;;;;;745147;186;918623;-59
2022/07/10 10:56:22;;;;;;;8.73;1.80;;;;;;;;;;738019;188;919657;-60
2022/07/10 10:58:48;;;;;;;4.33;2.37;;;;;;;;;;737945;187;816645;-56
2022/07/10 11:01:19;;;;;;;10.48;2.30;;;;;;;;;;733946;187;1844765;-60
2022/07/10 11:03:46;;;;;;;6.10;2.20;;;;;;;;;;738367;189;836721;-57
2022/07/10 11:06:13;;;;;;;13.73;2.92;;;;;;;;;;735394;187;914326;-57
2022/07/10 11:08:38;;;;;;;7.07;2.03;;;;;;;;;;734584;187;914889;-61
2022/07/10 11:11:19;;;;;;;5.30;2.03;;;;;;;;;;739679;184;915220;-57
2022/07/10 11:13:44;;;;;;;3.60;1.77;;;;;;;;;;730851;191;817799;-57
2022/07/10 11:16:12;;;;;;;4.93;2.17;;;;;;;;;;741246;187;918456;-57
2022/07/10 11:18:38;;;;;;;4.60;2.10;;;;;;;;;;739221;187;923940;-61
2022/07/10 11:21:04;;;;;;;5.23;1.80;;;;;;;;;;739857;187;860843;-56
2022/07/10 11:23:49;;;;;;;12.43;2.20;;;;;;;;;;743312;187;919900;-57
2022/07/10 11:26:16;;;;;;;5.20;1.67;;;;;;;;;;744737;189;916422;-60
2022/07/10 11:28:52;;;;;;;3.50;2.23;;;;;;;;;;734904;189;917319;-57
2022/07/10 11:31:18;;;;;;;4.43;1.90;;;;;;;;;;730051;189;918922;-58
2022/07/10 11:33:44;;;;;;;5.13;1.93;;;;;;;;;;730261;188;921321;-58
2022/07/10 11:36:11;;;;;;;10.03;2.20;;;;;;;;;;742651;187;837223;-62
2022/07/10 11:38:36;;;;;;;7.50;2.13;;;;;;;;;;737927;187;812913;-61
2022/07/10 11:41:02;;;;;;;6.00;2.17;;;;;;;;;;732351;187;915397;-57
2022/07/10 11:43:28;;;;;;;16.87;2.50;;;;;;;;;;733197;187;920730;-63
2022/07/10 11:45:59;;;;;;;12.15;3.00;;;;;;;;;;739485;187;918919;-61
2022/07/10 11:48:21;;;;;;;7.33;2.63;;;;;;;;;;729113;187;1024721;-58
2022/07/10 11:50:46;;;;;;;7.07;2.40;;;;;;;;;;733188;187;930201;-62
2022/07/10 11:53:12;;;;;;;3.93;2.20;;;;;;;;;;737932;187;915859;-58
2022/07/10 11:55:40;;;;;;;7.93;2.33;;;;;;;;;;733064;187;920435;-62
2022/07/10 11:58:10;;;;;;;6.83;2.40;;;;;;;;;;735972;187;919569;-57
2022/07/10 12:00:35;;;;;;;7.87;2.43;;;;;;;;;;733567;187;915765;-58
2022/07/10 12:03:01;;;;;;;3.90;2.37;;;;;;;;;;738820;187;918058;-58
2022/07/10 12:05:30;;;;;;;11.33;2.13;;;;;;;;;;729070;190;918655;-62
2022/07/10 12:07:56;;;;;;;6.43;2.53;;;;;;;;;;733144;191;916358;-58
2022/07/10 12:10:22;;;;;;;7.23;2.70;;;;;;;;;;737618;191;818440;-61
2022/07/10 12:12:49;;;;;;;6.63;2.27;;;;;;;;;;721543;187;816403;-57
2022/07/10 12:15:13;;;;;;;7.57;2.57;;;;;;;;;;732890;187;918695;-58
2022/07/10 12:17:40;;;;;;;4.03;2.00;;;;;;;;;;723708;191;1035405;-58
2022/07/10 12:20:06;;;;;;;5.20;1.80;;;;;;;;;;730993;191;919417;-57
2022/07/10 12:22:33;;;;;;;4.10;1.80;;;;;;;;;;736812;187;919355;-58
2022/07/10 12:24:59;;;;;;;5.60;1.70;;;;;;;;;;733227;187;943086;-62
2022/07/10 12:27:30;;;;;;;3.57;1.73;;;;;;;;;;738802;187;920994;-58
2022/07/10 12:30:01;;;;;;;3.00;1.60;;;;;;;;;;733432;187;918934;-62
2022/07/10 12:32:27;;;;;;;7.83;2.37;;;;;;;;;;733165;187;918312;-62
2022/07/10 12:34:53;;;;;;;2.90;1.63;;;;;;;;;;730914;187;918003;-62
2022/07/10 12:37:20;;;;;;;3.80;1.40;;;;;;;;;;739559;187;818663;-63
2022/07/10 12:39:46;;;;;;;2.30;1.50;;;;;;;;;;732143;187;915017;-62
2022/07/10 12:42:13;;;;;;;4.93;2.80;;;;;;;;;;733064;187;913287;-62
2022/07/10 12:44:41;;;;;;;13.80;2.03;;;;;;;;;;737094;189;918814;-57
2022/07/10 12:47:11;;;;;;;4.00;2.10;;;;;;;;;;725689;189;816431;-57
2022/07/10 12:49:41;;;;;;;3.40;1.77;;;;;;;;;;729668;187;928101;-57
2022/07/10 12:52:07;;;;;;;2.97;1.85;;;;;;;;;;718429;191;922653;-63
2022/07/10 12:54:34;;;;;;;3.43;1.37;;;;;;;;;;734213;188;922040;-58
2022/07/10 12:57:00;;;;;;;3.83;1.90;;;;;;;;;;733024;187;816618;-58
2022/07/10 12:59:26;;;;;;;3.65;1.58;;;;;;;;;;730030;190;919719;-62
2022/07/10 13:01:53;;;;;;;6.40;2.00;;;;;;;;;;730884;190;918506;-62
2022/07/10 13:04:25;;;;;;;4.27;1.60;;;;;;;;;;740341;187;752894;-63
2022/07/10 13:06:50;;;;;;;4.30;1.67;;;;;;;;;;736526;188;920131;-58
2022/07/10 13:09:18;;;;;;;2.73;1.40;;;;;;;;;;736278;187;913728;-61
2022/07/10 13:11:44;;;;;;;2.37;1.10;;;;;;;;;;742851;186;817197;-58
2022/07/10 13:14:10;;;;;;;3.73;1.40;;;;;;;;;;736749;188;920183;-58
2022/07/10 13:16:36;;;;;;;3.80;1.57;;;;;;;;;;739734;187;916707;-62
2022/07/10 13:19:02;;;;;;;6.40;1.47;;;;;;;;;;737550;187;815812;-58
2022/07/10 13:21:27;;;;;;;3.07;1.73;;;;;;;;;;744192;187;918758;-58
2022/07/10 13:23:55;;;;;;;5.60;3.47;;;;;;;;;;739513;187;920323;-63
2022/07/10 13:26:20;;;;;;;3.33;1.07;;;;;;;;;;737490;187;817048;-66
2022/07/10 13:28:46;;;;;;;5.57;1.20;;;;;;;;;;745050;187;816688;-56
2022/07/10 13:31:12;;;;;;;6.13;1.30;;;;;;;;;;736388;187;919402;-66
2022/07/10 13:33:38;;;;;;;6.13;1.30;;;;;;;;;;736632;187;917823;-64
2022/07/10 13:36:04;;;;;;;4.13;1.00;;;;;;;;;;742181;187;827517;-59
2022/07/10 13:38:29;;;;;;;5.17;1.37;;;;;;;;;;740133;187;920339;-65
2022/07/10 13:40:55;;;;;;;2.40;1.17;;;;;;;;;;736670;187;919488;-58
2022/07/10 13:43:21;;;;;;;2.73;1.20;;;;;;;;;;737869;187;908468;-58
2022/07/10 13:45:47;;;;;;;2.53;1.27;;;;;;;;;;745967;184;914511;-58
2022/07/10 13:48:13;;;;;;;3.30;1.07;;;;;;;;;;731588;187;897881;-63
2022/07/10 13:50:39;;;;;;;3.10;1.40;;;;;;;;;;731012;187;914464;-62
2022/07/10 13:53:04;;;;;;;5.63;1.40;;;;;;;;;;744252;187;743525;-65
2022/07/10 13:55:30;;;;;;;1.87;0.93;;;;;;;;;;738958;187;919225;-62
2022/07/10 13:57:56;;;;;;;4.07;1.20;;;;;;;;;;738280;187;918374;-64
2022/07/10 14:00:22;;;;;;;3.27;1.27;;;;;;;;;;742536;187;911243;-63
2022/07/10 14:02:48;;;;;;;2.40;1.10;;;;;;;;;;733886;187;920814;-64
2022/07/10 14:05:14;;;;;;;2.00;1.00;;;;;;;;;;739581;187;887213;-58
2022/07/10 14:07:40;;;;;;;5.60;1.60;;;;;;;;;;740637;187;779877;-62
2022/07/10 14:10:06;;;;;;;3.05;1.30;;;;;;;;;;742386;187;815018;-63
2022/07/10 14:12:32;;;;;;;2.10;1.10;;;;;;;;;;740188;184;915607;-58
2022/07/10 14:14:58;;;;;;;2.20;1.10;;;;;;;;;;734719;187;637900;-64
2022/07/10 14:17:24;;;;;;;2.47;1.20;;;;;;;;;;744265;187;922927;-58
2022/07/10 14:19:49;;;;;;;2.80;1.30;;;;;;;;;;737071;187;914109;-58
2022/07/10 14:22:15;;;;;;;3.77;1.33;;;;;;;;;;737743;187;918543;-64
2022/07/10 14:24:41;;;;;;;3.40;1.00;;;;;;;;;;746716;187;816791;-57
2022/07/10 14:27:07;;;;;;;4.07;1.10;;;;;;;;;;739759;187;918229;-67